Time;durP1;ratioP1;P1;durP2;ratioP2;P2;SDS_P1;SDS_P2;PMS_P1;PMS_P2;Temp;Humidity;BMP_temperature;BMP_pressure;BME280_temperature;BME280_humidity;BME280_pressure;Samples;Min_cycle;Max_cycle;Signal;HPM_P1;HPM_P2
2023/04/29 00:00:27;;;;;;;9.75;6.18;;;;;;;;;;5095320;28;20123;-60
2023/04/29 00:02:55;;;;;;;8.13;6.03;;;;;;;;;;5111111;28;20040;-60
2023/04/29 00:05:22;;;;;;;8.82;6.15;;;;;;;;;;5095300;28;20051;-60
2023/04/29 00:07:50;;;;;;;9.32;6.32;;;;;;;;;;5095216;28;20040;-60
2023/04/29 00:10:18;;;;;;;12.75;6.88;;;;;;;;;;5095134;28;20040;-60
2023/04/29 00:12:45;;;;;;;10.75;6.55;;;;;;;;;;5095069;28;20044;-60
2023/04/29 00:15:13;;;;;;;7.75;6.22;;;;;;;;;;5095200;28;20036;-60
2023/04/29 00:17:40;;;;;;;8.45;6.82;;;;;;;;;;5095018;28;20051;-60
2023/04/29 00:20:09;;;;;;;11.45;6.90;;;;;;;;;;5094961;28;20089;-60
2023/04/29 00:22:36;;;;;;;9.07;6.63;;;;;;;;;;5095054;28;20036;-60
2023/04/29 00:25:04;;;;;;;10.18;7.15;;;;;;;;;;5095071;28;20405;-60
2023/04/29 00:27:32;;;;;;;9.88;6.07;;;;;;;;;;5093807;28;20086;-60
2023/04/29 00:29:59;;;;;;;10.70;6.38;;;;;;;;;;5110668;28;20433;-60
2023/04/29 00:32:27;;;;;;;14.32;7.45;;;;;;;;;;5110645;28;20130;-60
2023/04/29 00:34:56;;;;;;;14.25;7.70;;;;;;;;;;5110558;28;20097;-60
2023/04/29 00:37:23;;;;;;;12.95;6.60;;;;;;;;;;5093588;28;20044;-60
2023/04/29 00:39:51;;;;;;;9.50;6.47;;;;;;;;;;5110241;28;20056;-60
2023/04/29 00:42:19;;;;;;;11.70;6.93;;;;;;;;;;5110366;28;20044;-60
2023/04/29 00:44:47;;;;;;;8.15;6.18;;;;;;;;;;5110299;28;20051;-60
2023/04/29 00:47:14;;;;;;;8.95;6.53;;;;;;;;;;5094509;28;20036;-60
2023/04/29 00:49:42;;;;;;;9.98;6.82;;;;;;;;;;5093257;28;20505;-60
2023/04/29 00:52:11;;;;;;;8.35;6.43;;;;;;;;;;5094696;28;20122;-60
2023/04/29 00:54:38;;;;;;;9.27;6.50;;;;;;;;;;5093104;28;20081;-60
2023/04/29 00:57:06;;;;;;;11.25;6.72;;;;;;;;;;5110080;28;20478;-60
2023/04/29 00:59:34;;;;;;;10.60;6.85;;;;;;;;;;5092921;28;20056;-60
2023/04/29 01:02:02;;;;;;;8.60;6.55;;;;;;;;;;5109982;28;20185;-60
2023/04/29 01:04:31;;;;;;;9.40;6.70;;;;;;;;;;5094419;28;20101;-60
2023/04/29 01:07:04;;;;;;;11.82;6.70;;;;;;;;;;5109957;28;20126;-60
2023/04/29 01:09:47;;;;;;;10.95;7.68;;;;;;;;;;5109740;28;20059;-60
2023/04/29 01:12:21;;;;;;;9.60;7.00;;;;;;;;;;5076350;28;20032;-60
2023/04/29 01:15:01;;;;;;;10.60;6.43;;;;;;;;;;5092700;28;20414;-60
2023/04/29 01:17:30;;;;;;;11.75;6.80;;;;;;;;;;5109665;28;20553;-60
2023/04/29 01:19:58;;;;;;;9.73;6.30;;;;;;;;;;5092538;28;20046;-60
2023/04/29 01:22:26;;;;;;;12.80;6.93;;;;;;;;;;5109576;28;20042;-60
2023/04/29 01:24:53;;;;;;;7.93;6.50;;;;;;;;;;5092479;28;20052;-60
2023/04/29 01:27:33;;;;;;;11.70;6.78;;;;;;;;;;5092481;28;20081;-60
2023/04/29 01:30:21;;;;;;;9.43;6.90;;;;;;;;;;5109375;28;20101;-60
2023/04/29 01:33:08;;;;;;;10.68;7.03;;;;;;;;;;5091928;28;20040;-60
2023/04/29 01:35:39;;;;;;;9.60;6.82;;;;;;;;;;5092260;28;20044;-60
2023/04/29 01:38:09;;;;;;;17.48;7.03;;;;;;;;;;5075435;28;20751;-60
2023/04/29 01:40:48;;;;;;;10.43;6.88;;;;;;;;;;5092787;28;20135;-60
2023/04/29 01:43:23;;;;;;;10.60;7.40;;;;;;;;;;5109166;28;20055;-60
2023/04/29 01:45:52;;;;;;;10.82;7.20;;;;;;;;;;5092185;28;20585;-60
2023/04/29 01:48:21;;;;;;;14.13;7.55;;;;;;;;;;5093405;28;20036;-60
2023/04/29 01:50:49;;;;;;;12.60;7.20;;;;;;;;;;5109007;28;20036;-60
2023/04/29 01:53:17;;;;;;;11.52;7.47;;;;;;;;;;5075321;28;20075;-60
2023/04/29 01:55:45;;;;;;;10.00;6.82;;;;;;;;;;5109074;28;20425;-60
2023/04/29 01:58:22;;;;;;;11.60;7.55;;;;;;;;;;5091794;28;20055;-60
2023/04/29 02:00:50;;;;;;;9.52;7.15;;;;;;;;;;5093071;28;20048;-60
2023/04/29 02:03:18;;;;;;;12.13;7.32;;;;;;;;;;5091769;28;20044;-60
2023/04/29 02:05:50;;;;;;;9.52;7.28;;;;;;;;;;5091964;28;20044;-60
2023/04/29 02:08:18;;;;;;;8.70;7.03;;;;;;;;;;5108715;28;20097;-60
2023/04/29 02:10:53;;;;;;;11.82;7.35;;;;;;;;;;5091852;28;20051;-60
2023/04/29 02:13:41;;;;;;;11.38;7.05;;;;;;;;;;5108579;28;20040;-60
2023/04/29 02:16:11;;;;;;;10.75;7.40;;;;;;;;;;5108670;28;20102;-60
2023/04/29 02:18:47;;;;;;;11.35;7.05;;;;;;;;;;5108848;28;20123;-60
2023/04/29 02:21:14;;;;;;;11.07;6.95;;;;;;;;;;5091587;28;20048;-60
2023/04/29 02:23:42;;;;;;;10.70;7.55;;;;;;;;;;5091607;28;20089;-59
2023/04/29 02:26:10;;;;;;;9.25;7.03;;;;;;;;;;5108329;28;20429;-60
2023/04/29 02:28:37;;;;;;;11.35;6.97;;;;;;;;;;5091584;28;20103;-60
2023/04/29 02:31:05;;;;;;;9.70;7.13;;;;;;;;;;5091418;28;20048;-60
2023/04/29 02:33:33;;;;;;;12.27;7.78;;;;;;;;;;5108255;28;20095;-60
2023/04/29 02:36:00;;;;;;;10.93;7.60;;;;;;;;;;5074823;28;20464;-60
2023/04/29 02:38:28;;;;;;;9.82;6.95;;;;;;;;;;5091275;28;20047;-60
2023/04/29 02:40:56;;;;;;;10.60;7.78;;;;;;;;;;5092709;28;20047;-60
2023/04/29 02:43:23;;;;;;;11.85;7.35;;;;;;;;;;5091484;28;20097;-60
2023/04/29 02:45:51;;;;;;;14.40;7.85;;;;;;;;;;5112662;28;20050;-60
2023/04/29 02:48:18;;;;;;;12.80;8.13;;;;;;;;;;5112681;28;20036;-60
2023/04/29 02:50:46;;;;;;;11.02;7.50;;;;;;;;;;5112437;28;20557;-60
2023/04/29 02:53:13;;;;;;;10.32;7.25;;;;;;;;;;5112500;28;20036;-60
2023/04/29 02:55:42;;;;;;;12.15;7.80;;;;;;;;;;5095370;28;20047;-60
2023/04/29 02:58:10;;;;;;;14.43;8.43;;;;;;;;;;5095369;28;20036;-60
2023/04/29 03:00:38;;;;;;;11.90;7.65;;;;;;;;;;5095089;28;20048;-60
2023/04/29 03:03:06;;;;;;;13.40;8.13;;;;;;;;;;5078659;28;20047;-60
2023/04/29 03:05:34;;;;;;;11.25;7.80;;;;;;;;;;5095280;28;20097;-60
2023/04/29 03:08:03;;;;;;;14.10;7.55;;;;;;;;;;5095302;28;20462;-60
2023/04/29 03:10:30;;;;;;;11.75;7.53;;;;;;;;;;5095118;28;20043;-60
2023/04/29 03:12:58;;;;;;;12.32;8.45;;;;;;;;;;5112163;28;20048;-60
2023/04/29 03:15:25;;;;;;;10.98;7.53;;;;;;;;;;5095078;28;20040;-60
2023/04/29 03:17:53;;;;;;;14.02;7.65;;;;;;;;;;5095010;28;20512;-60
2023/04/29 03:20:21;;;;;;;12.23;7.18;;;;;;;;;;5078087;28;20123;-60
2023/04/29 03:22:48;;;;;;;15.00;7.80;;;;;;;;;;5096033;28;20126;-60
2023/04/29 03:25:16;;;;;;;11.73;7.50;;;;;;;;;;5111795;28;20044;-59
2023/04/29 03:27:43;;;;;;;12.07;7.30;;;;;;;;;;5094806;28;20519;-59
2023/04/29 03:30:11;;;;;;;11.18;7.65;;;;;;;;;;5111723;28;20059;-60
2023/04/29 03:32:48;;;;;;;13.77;7.97;;;;;;;;;;5111770;28;20406;-60
2023/04/29 03:35:16;;;;;;;10.02;7.60;;;;;;;;;;5094807;28;20052;-60
2023/04/29 03:37:57;;;;;;;11.68;7.82;;;;;;;;;;5079960;28;20123;-60
2023/04/29 03:40:29;;;;;;;11.45;7.40;;;;;;;;;;5095179;28;20464;-60
2023/04/29 03:42:59;;;;;;;12.00;8.13;;;;;;;;;;5111705;28;20044;-59
2023/04/29 03:45:27;;;;;;;10.40;7.57;;;;;;;;;;5094551;28;20044;-60
2023/04/29 03:47:54;;;;;;;12.05;7.75;;;;;;;;;;5111307;28;20134;-60
2023/04/29 03:50:23;;;;;;;11.50;7.43;;;;;;;;;;5094454;28;20063;-60
2023/04/29 03:52:50;;;;;;;12.07;8.10;;;;;;;;;;5111308;28;20078;-60
2023/04/29 03:55:19;;;;;;;12.13;7.47;;;;;;;;;;5110844;28;20044;-60
2023/04/29 03:57:47;;;;;;;10.43;7.68;;;;;;;;;;5094269;28;20044;-60
2023/04/29 04:00:17;;;;;;;12.38;7.47;;;;;;;;;;5077626;28;20052;-60
2023/04/29 04:02:50;;;;;;;9.52;7.00;;;;;;;;;;5094199;28;20044;-60
2023/04/29 04:05:23;;;;;;;12.20;7.22;;;;;;;;;;5111326;28;20044;-60
2023/04/29 04:07:55;;;;;;;11.05;7.97;;;;;;;;;;5094885;28;20044;-60
2023/04/29 04:10:35;;;;;;;10.27;7.45;;;;;;;;;;5094491;28;20131;-60
2023/04/29 04:13:09;;;;;;;14.88;7.63;;;;;;;;;;5095068;28;20048;-60
2023/04/29 04:15:36;;;;;;;13.20;9.77;;;;;;;;;;5093768;28;20055;-60
2023/04/29 04:18:04;;;;;;;13.48;10.07;;;;;;;;;;5110804;28;20032;-59
2023/04/29 04:20:32;;;;;;;14.88;9.27;;;;;;;;;;5110777;28;20044;-59
2023/04/29 04:23:00;;;;;;;12.07;7.47;;;;;;;;;;5093721;28;20036;-59
2023/04/29 04:25:29;;;;;;;14.18;7.50;;;;;;;;;;5110746;28;20524;-59
2023/04/29 04:28:10;;;;;;;10.63;6.80;;;;;;;;;;5111078;28;20040;-59
2023/04/29 04:30:57;;;;;;;10.90;7.78;;;;;;;;;;5111000;28;20048;-59
2023/04/29 04:33:26;;;;;;;10.73;7.32;;;;;;;;;;5095071;28;20409;-59
2023/04/29 04:35:53;;;;;;;7.47;5.63;;;;;;;;;;5093846;28;20566;-59
2023/04/29 04:38:24;;;;;;;7.78;5.68;;;;;;;;;;5076640;28;20050;-60
2023/04/29 04:40:52;;;;;;;7.25;4.95;;;;;;;;;;5093330;28;20448;-60
2023/04/29 04:43:29;;;;;;;15.15;5.25;;;;;;;;;;5076671;28;20032;-61
2023/04/29 04:45:56;;;;;;;6.75;4.75;;;;;;;;;;5076330;28;20067;-60
2023/04/29 04:48:25;;;;;;;7.85;4.85;;;;;;;;;;5076323;28;20051;-60
2023/04/29 04:50:53;;;;;;;6.88;5.20;;;;;;;;;;5076485;28;20059;-60
2023/04/29 04:53:21;;;;;;;8.02;4.72;;;;;;;;;;5094334;28;20040;-60
2023/04/29 04:56:11;;;;;;;10.15;5.00;;;;;;;;;;5093294;28;20074;-60
2023/04/29 04:58:39;;;;;;;10.68;5.32;;;;;;;;;;5076101;28;20044;-60
2023/04/29 05:01:06;;;;;;;10.35;5.72;;;;;;;;;;5075890;28;20498;-60
2023/04/29 05:03:34;;;;;;;8.63;5.35;;;;;;;;;;5076420;28;20072;-60
2023/04/29 05:06:02;;;;;;;9.23;5.38;;;;;;;;;;5066292;28;20048;-61
2023/04/29 05:08:30;;;;;;;8.20;5.43;;;;;;;;;;5081788;28;20044;-61
2023/04/29 05:10:59;;;;;;;9.00;5.32;;;;;;;;;;5074591;28;20032;-61
2023/04/29 05:13:27;;;;;;;10.82;4.93;;;;;;;;;;5081426;28;20036;-61
2023/04/29 05:15:55;;;;;;;7.15;4.85;;;;;;;;;;5081320;28;20040;-61
2023/04/29 05:18:26;;;;;;;8.35;5.28;;;;;;;;;;5083511;28;20035;-60
2023/04/29 05:20:53;;;;;;;7.30;4.63;;;;;;;;;;5092464;28;20052;-60
2023/04/29 05:23:22;;;;;;;10.15;4.75;;;;;;;;;;5071298;28;20032;-60
2023/04/29 05:25:50;;;;;;;7.63;4.38;;;;;;;;;;5079478;28;20506;-61
2023/04/29 05:28:17;;;;;;;8.40;4.68;;;;;;;;;;5072888;28;20036;-60
2023/04/29 05:30:46;;;;;;;13.13;5.25;;;;;;;;;;5064712;28;20043;-60
2023/04/29 05:33:14;;;;;;;8.75;5.13;;;;;;;;;;5063985;28;20047;-60
2023/04/29 05:35:43;;;;;;;11.15;4.95;;;;;;;;;;5081389;28;20039;-60
2023/04/29 05:38:10;;;;;;;6.10;4.05;;;;;;;;;;5074284;28;20044;-60
2023/04/29 05:40:40;;;;;;;11.82;6.15;;;;;;;;;;5073170;28;20043;-60
2023/04/29 05:43:37;;;;;;;8.50;4.50;;;;;;;;;;5007973;28;20038;-60
2023/04/29 05:46:05;;;;;;;7.15;4.43;;;;;;;;;;5064066;28;20127;-61
2023/04/29 05:48:32;;;;;;;10.30;5.07;;;;;;;;;;5073777;28;20043;-60
2023/04/29 05:51:00;;;;;;;13.18;5.82;;;;;;;;;;5082477;28;20032;-61
2023/04/29 05:53:28;;;;;;;6.57;3.83;;;;;;;;;;5079770;28;20501;-61
2023/04/29 05:55:55;;;;;;;5.93;4.13;;;;;;;;;;5079134;28;20040;-60
2023/04/29 05:58:24;;;;;;;19.23;4.15;;;;;;;;;;5054758;28;20047;-60
2023/04/29 06:00:52;;;;;;;6.63;4.00;;;;;;;;;;5057215;28;20139;-60
2023/04/29 06:03:24;;;;;;;6.93;3.60;;;;;;;;;;5080836;28;20053;-61
2023/04/29 06:06:11;;;;;;;6.63;3.78;;;;;;;;;;5090278;28;20429;-61
2023/04/29 06:08:46;;;;;;;5.03;3.50;;;;;;;;;;5074823;28;20047;-60
2023/04/29 06:11:21;;;;;;;7.85;3.50;;;;;;;;;;5091625;28;20044;-62
2023/04/29 06:13:49;;;;;;;8.23;4.00;;;;;;;;;;5091709;28;20044;-62
2023/04/29 06:16:17;;;;;;;7.00;4.05;;;;;;;;;;5074730;28;20083;-61
2023/04/29 06:18:45;;;;;;;7.60;3.95;;;;;;;;;;5091413;28;20051;-60
2023/04/29 06:21:14;;;;;;;7.95;3.75;;;;;;;;;;5091449;28;20036;-61
2023/04/29 06:23:42;;;;;;;5.60;3.65;;;;;;;;;;5074634;28;20071;-61
2023/04/29 06:26:15;;;;;;;7.95;3.90;;;;;;;;;;5091406;28;20117;-61
2023/04/29 06:28:43;;;;;;;5.75;3.78;;;;;;;;;;5074375;28;20059;-61
2023/04/29 06:31:11;;;;;;;5.47;3.90;;;;;;;;;;5091370;28;20070;-60
2023/04/29 06:33:41;;;;;;;6.18;3.30;;;;;;;;;;5091375;28;20461;-61
2023/04/29 06:36:08;;;;;;;6.25;3.50;;;;;;;;;;5091226;28;20032;-62
2023/04/29 06:38:45;;;;;;;6.95;3.65;;;;;;;;;;5086627;28;20375;-63
2023/04/29 06:41:32;;;;;;;6.45;3.50;;;;;;;;;;5072362;28;20052;-62
2023/04/29 06:44:23;;;;;;;4.63;3.47;;;;;;;;;;5054436;28;20071;-62
2023/04/29 06:47:23;;;;;;;7.75;3.60;;;;;;;;;;5033867;28;20055;-62
2023/04/29 06:50:04;;;;;;;5.80;3.50;;;;;;;;;;5054279;28;20048;-62
2023/04/29 06:52:32;;;;;;;7.03;3.90;;;;;;;;;;5054085;28;20056;-61
2023/04/29 06:54:59;;;;;;;6.45;3.60;;;;;;;;;;5074226;28;20110;-62
2023/04/29 06:57:27;;;;;;;8.60;4.00;;;;;;;;;;5070972;28;20508;-62
2023/04/29 06:59:54;;;;;;;6.30;3.50;;;;;;;;;;5091041;28;20047;-62
2023/04/29 07:02:24;;;;;;;5.63;3.63;;;;;;;;;;5086729;28;20037;-62
2023/04/29 07:04:51;;;;;;;4.75;3.67;;;;;;;;;;5091066;28;20131;-62
2023/04/29 07:07:19;;;;;;;5.30;3.70;;;;;;;;;;5091102;28;20044;-63
2023/04/29 07:09:50;;;;;;;4.70;3.58;;;;;;;;;;5074128;28;20090;-63
2023/04/29 07:12:20;;;;;;;9.98;5.05;;;;;;;;;;5090997;28;20502;-62
2023/04/29 07:14:47;;;;;;;5.57;3.13;;;;;;;;;;5090964;28;20040;-63
2023/04/29 07:17:15;;;;;;;5.82;2.97;;;;;;;;;;5074127;28;20135;-62
2023/04/29 07:19:57;;;;;;;4.93;3.60;;;;;;;;;;5090955;28;20582;-63
2023/04/29 07:22:48;;;;;;;5.40;3.78;;;;;;;;;;5090970;28;20101;-64
2023/04/29 07:25:16;;;;;;;6.68;3.40;;;;;;;;;;5074057;28;20513;-62
2023/04/29 07:27:44;;;;;;;8.68;3.60;;;;;;;;;;5090848;28;20048;-63
2023/04/29 07:30:12;;;;;;;6.25;3.28;;;;;;;;;;5075370;28;20066;-63
2023/04/29 07:32:39;;;;;;;4.90;3.20;;;;;;;;;;5094946;28;20048;-63
2023/04/29 07:35:07;;;;;;;5.28;2.92;;;;;;;;;;5044832;28;20555;-62
2023/04/29 07:37:35;;;;;;;6.47;3.22;;;;;;;;;;5077098;28;20044;-63
2023/04/29 07:40:04;;;;;;;7.13;3.63;;;;;;;;;;5077748;28;20043;-63
2023/04/29 07:42:32;;;;;;;5.72;3.65;;;;;;;;;;5077717;28;20047;-64
2023/04/29 07:45:00;;;;;;;5.57;3.00;;;;;;;;;;5094406;28;20089;-64
2023/04/29 07:47:27;;;;;;;5.93;3.50;;;;;;;;;;5094438;28;20048;-64
2023/04/29 07:49:55;;;;;;;4.22;3.30;;;;;;;;;;5094277;28;20046;-63
2023/04/29 07:52:22;;;;;;;7.10;3.30;;;;;;;;;;5077497;28;20044;-64
2023/04/29 07:54:50;;;;;;;7.85;4.05;;;;;;;;;;5094268;28;20465;-62
2023/04/29 07:57:18;;;;;;;7.18;3.83;;;;;;;;;;5095312;28;20040;-63
2023/04/29 07:59:45;;;;;;;5.57;4.20;;;;;;;;;;5076908;28;20059;-63
2023/04/29 08:02:15;;;;;;;8.73;3.95;;;;;;;;;;5077331;28;20062;-63
2023/04/29 08:04:43;;;;;;;7.30;4.40;;;;;;;;;;5094100;28;20558;-63
2023/04/29 08:07:12;;;;;;;5.78;3.50;;;;;;;;;;5061023;28;20127;-60
2023/04/29 08:09:40;;;;;;;5.32;3.53;;;;;;;;;;5093910;28;20074;-61
2023/04/29 08:12:09;;;;;;;4.57;3.55;;;;;;;;;;5075569;28;20132;-61
2023/04/29 08:14:39;;;;;;;10.07;4.93;;;;;;;;;;5073499;28;20048;-62
2023/04/29 08:17:07;;;;;;;4.82;3.13;;;;;;;;;;5069741;28;20043;-63
2023/04/29 08:19:35;;;;;;;7.00;3.53;;;;;;;;;;5077513;28;20056;-63
2023/04/29 08:22:03;;;;;;;5.35;3.10;;;;;;;;;;5092589;28;20044;-63
2023/04/29 08:24:32;;;;;;;5.45;3.70;;;;;;;;;;5080964;28;20535;-63
2023/04/29 08:27:00;;;;;;;5.15;3.13;;;;;;;;;;5082685;28;20044;-63
2023/04/29 08:29:27;;;;;;;5.25;3.05;;;;;;;;;;5074267;28;20094;-62
2023/04/29 08:31:55;;;;;;;7.00;3.40;;;;;;;;;;5074170;28;20079;-62
2023/04/29 08:34:22;;;;;;;3.90;2.97;;;;;;;;;;5093858;28;20043;-62
2023/04/29 08:36:50;;;;;;;4.47;3.15;;;;;;;;;;5094831;28;20044;-63
2023/04/29 08:39:17;;;;;;;4.50;3.00;;;;;;;;;;5075228;28;20543;-62
2023/04/29 08:41:50;;;;;;;4.35;3.42;;;;;;;;;;5074065;28;20044;-62
2023/04/29 08:44:17;;;;;;;7.75;3.47;;;;;;;;;;5073999;28;20044;-62
2023/04/29 08:46:45;;;;;;;6.25;3.65;;;;;;;;;;5083194;28;20139;-62
2023/04/29 08:49:13;;;;;;;6.65;3.58;;;;;;;;;;5060766;28;20402;-62
2023/04/29 08:51:41;;;;;;;8.40;3.60;;;;;;;;;;5084098;28;20077;-62
2023/04/29 08:54:08;;;;;;;11.00;3.88;;;;;;;;;;5058414;28;20048;-62
2023/04/29 08:56:36;;;;;;;6.05;3.47;;;;;;;;;;5079694;28;20066;-63
2023/04/29 08:59:05;;;;;;;6.22;3.65;;;;;;;;;;5093198;28;20490;-63
2023/04/29 09:01:36;;;;;;;7.10;3.40;;;;;;;;;;5086874;28;20036;-62
2023/04/29 09:04:16;;;;;;;5.82;3.08;;;;;;;;;;5073638;28;20083;-62
2023/04/29 09:06:43;;;;;;;5.55;3.10;;;;;;;;;;5073550;28;20041;-63
2023/04/29 09:09:13;;;;;;;6.40;3.55;;;;;;;;;;5073499;28;20482;-63
2023/04/29 09:11:41;;;;;;;6.88;3.60;;;;;;;;;;5073267;28;20051;-64
2023/04/29 09:14:08;;;;;;;7.50;3.47;;;;;;;;;;5073564;28;20689;-64
2023/04/29 09:16:37;;;;;;;7.97;3.53;;;;;;;;;;5072328;28;20040;-64
2023/04/29 09:19:05;;;;;;;8.68;3.30;;;;;;;;;;5073291;28;20082;-64
2023/04/29 09:21:32;;;;;;;7.70;3.20;;;;;;;;;;5073127;28;20094;-64
2023/04/29 09:24:01;;;;;;;6.53;3.38;;;;;;;;;;5079953;28;20036;-65
2023/04/29 09:26:43;;;;;;;7.60;3.28;;;;;;;;;;5093577;28;20044;-64
2023/04/29 09:29:17;;;;;;;5.43;3.08;;;;;;;;;;5080254;28;20040;-64
2023/04/29 09:31:44;;;;;;;6.20;2.85;;;;;;;;;;5093513;28;20078;-64
2023/04/29 09:34:13;;;;;;;5.25;3.08;;;;;;;;;;5075507;28;20032;-64
2023/04/29 09:36:57;;;;;;;5.80;3.47;;;;;;;;;;5093371;28;20048;-64
2023/04/29 09:39:25;;;;;;;10.32;3.95;;;;;;;;;;5093490;28;20494;-64
2023/04/29 09:41:53;;;;;;;7.82;3.60;;;;;;;;;;5093394;28;20048;-64
2023/04/29 09:44:21;;;;;;;6.78;3.40;;;;;;;;;;5093001;28;20039;-65
2023/04/29 09:47:01;;;;;;;6.78;4.03;;;;;;;;;;5093235;28;20028;-65
2023/04/29 09:49:31;;;;;;;8.00;4.85;;;;;;;;;;5072856;28;20036;-65
2023/04/29 09:51:59;;;;;;;6.10;3.88;;;;;;;;;;5072673;28;20094;-64
2023/04/29 09:54:28;;;;;;;12.07;8.38;;;;;;;;;;5058463;28;20040;-64
2023/04/29 09:56:56;;;;;;;33.70;21.55;;;;;;;;;;5072490;28;20060;-62
2023/04/29 09:59:24;;;;;;;7.95;3.90;;;;;;;;;;5072492;28;20526;-65
2023/04/29 10:01:53;;;;;;;7.38;3.55;;;;;;;;;;5071377;28;20044;-67
2023/04/29 10:04:22;;;;;;;9.00;4.97;;;;;;;;;;5072784;28;20063;-67
2023/04/29 10:06:51;;;;;;;10.25;4.70;;;;;;;;;;5072520;28;20036;-68
2023/04/29 10:09:19;;;;;;;8.43;4.10;;;;;;;;;;5072361;28;20052;-67
2023/04/29 10:11:51;;;;;;;8.38;3.80;;;;;;;;;;5072484;28;20131;-67
2023/04/29 10:14:20;;;;;;;7.05;3.58;;;;;;;;;;5077093;28;20038;-67
2023/04/29 10:16:48;;;;;;;6.40;3.60;;;;;;;;;;5072354;28;20494;-67
2023/04/29 10:19:19;;;;;;;7.20;3.47;;;;;;;;;;5071189;28;20528;-66
2023/04/29 10:21:48;;;;;;;8.50;3.45;;;;;;;;;;5072176;28;20502;-66
2023/04/29 10:24:20;;;;;;;7.10;3.90;;;;;;;;;;5063324;28;20398;-66
2023/04/29 10:26:50;;;;;;;9.55;3.03;;;;;;;;;;5091212;28;20048;-66
2023/04/29 10:29:19;;;;;;;7.13;3.30;;;;;;;;;;5078880;28;20040;-66
2023/04/29 10:31:48;;;;;;;5.13;3.50;;;;;;;;;;5070691;28;20155;-67
2023/04/29 10:34:17;;;;;;;6.90;3.58;;;;;;;;;;5070804;28;20048;-66
2023/04/29 10:36:45;;;;;;;6.47;3.30;;;;;;;;;;5072519;28;20178;-66
2023/04/29 10:39:17;;;;;;;7.38;3.30;;;;;;;;;;5072082;28;20115;-66
2023/04/29 10:41:46;;;;;;;5.20;3.85;;;;;;;;;;5072504;28;20058;-65
2023/04/29 10:44:14;;;;;;;7.10;3.60;;;;;;;;;;5054350;28;20384;-66
2023/04/29 10:46:41;;;;;;;7.32;3.70;;;;;;;;;;5071950;28;20051;-66
2023/04/29 10:49:10;;;;;;;4.68;3.28;;;;;;;;;;5071989;28;20060;-66
2023/04/29 10:51:40;;;;;;;6.13;3.67;;;;;;;;;;5071766;28;20063;-67
2023/04/29 10:54:08;;;;;;;6.75;3.35;;;;;;;;;;5071970;28;20036;-67
2023/04/29 10:56:40;;;;;;;6.65;3.30;;;;;;;;;;5072256;28;20053;-67
2023/04/29 10:59:12;;;;;;;5.75;3.15;;;;;;;;;;5078790;28;20032;-66
2023/04/29 11:01:49;;;;;;;5.53;3.28;;;;;;;;;;5071769;28;20065;-66
2023/04/29 11:04:21;;;;;;;6.53;3.83;;;;;;;;;;5071826;28;20098;-67
2023/04/29 11:06:53;;;;;;;8.55;4.95;;;;;;;;;;5075759;28;20048;-67
2023/04/29 11:09:21;;;;;;;8.77;3.20;;;;;;;;;;5075738;28;20036;-67
2023/04/29 11:11:56;;;;;;;5.88;3.20;;;;;;;;;;5075474;28;20043;-67
2023/04/29 11:14:31;;;;;;;7.25;3.00;;;;;;;;;;5075690;28;20075;-67
2023/04/29 11:17:00;;;;;;;4.65;2.95;;;;;;;;;;5075680;28;20387;-67
2023/04/29 11:19:34;;;;;;;6.75;3.60;;;;;;;;;;5075564;28;20455;-67
2023/04/29 11:22:34;;;;;;;8.18;3.42;;;;;;;;;;5075465;28;20040;-67
2023/04/29 11:25:10;;;;;;;8.05;4.20;;;;;;;;;;5027772;28;20048;-66
2023/04/29 11:27:39;;;;;;;5.28;2.90;;;;;;;;;;5077681;28;20374;-67
2023/04/29 11:30:07;;;;;;;4.82;3.10;;;;;;;;;;5095922;28;20416;-67
2023/04/29 11:32:35;;;;;;;5.20;3.00;;;;;;;;;;5095645;28;20490;-67
2023/04/29 11:35:10;;;;;;;5.18;3.38;;;;;;;;;;5077490;28;20069;-67
2023/04/29 11:37:38;;;;;;;5.53;3.25;;;;;;;;;;5080598;28;20437;-68
2023/04/29 11:40:07;;;;;;;5.10;3.03;;;;;;;;;;5075995;28;20040;-67
2023/04/29 11:42:35;;;;;;;5.68;3.15;;;;;;;;;;5077146;28;20123;-67
2023/04/29 11:45:03;;;;;;;6.97;3.33;;;;;;;;;;5087051;28;20044;-67
2023/04/29 11:47:31;;;;;;;7.30;3.28;;;;;;;;;;5095150;28;20040;-68
2023/04/29 11:50:04;;;;;;;8.20;3.08;;;;;;;;;;5095197;28;20101;-67
2023/04/29 11:52:32;;;;;;;7.28;2.92;;;;;;;;;;5091153;28;20102;-70
2023/04/29 11:55:00;;;;;;;45.72;5.95;;;;;;;;;;5078124;28;20428;-68
2023/04/29 11:57:27;;;;;;;4.50;2.80;;;;;;;;;;5090049;28;20040;-71
2023/04/29 11:59:55;;;;;;;7.03;3.47;;;;;;;;;;5077461;28;20041;-70
2023/04/29 12:02:23;;;;;;;6.78;3.28;;;;;;;;;;5078177;28;20068;-69
2023/04/29 12:04:50;;;;;;;6.05;3.25;;;;;;;;;;5086735;28;20051;-67
2023/04/29 12:07:18;;;;;;;6.15;2.72;;;;;;;;;;5094636;28;20036;-67
2023/04/29 12:09:46;;;;;;;6.20;3.13;;;;;;;;;;5093027;28;20126;-68
2023/04/29 12:12:14;;;;;;;4.70;2.90;;;;;;;;;;5084250;28;20040;-68
2023/04/29 12:14:42;;;;;;;4.63;3.20;;;;;;;;;;5079059;28;20084;-70
2023/04/29 12:17:10;;;;;;;5.50;3.15;;;;;;;;;;5073653;28;20048;-69
2023/04/29 12:19:39;;;;;;;6.05;3.75;;;;;;;;;;5073318;28;20040;-70
2023/04/29 12:22:06;;;;;;;5.47;3.20;;;;;;;;;;5072882;28;20041;-70
2023/04/29 12:24:38;;;;;;;8.45;3.60;;;;;;;;;;5074525;28;20032;-68
2023/04/29 12:27:09;;;;;;;8.18;3.20;;;;;;;;;;5074426;28;20048;-68
2023/04/29 12:29:39;;;;;;;5.13;3.00;;;;;;;;;;5074075;28;20565;-68
2023/04/29 12:32:07;;;;;;;11.25;4.18;;;;;;;;;;5074673;28;20072;-68
2023/04/29 12:34:35;;;;;;;10.60;6.47;;;;;;;;;;5074315;28;20032;-67
2023/04/29 12:37:02;;;;;;;5.28;3.10;;;;;;;;;;5074177;28;20063;-69
2023/04/29 12:39:30;;;;;;;9.50;3.63;;;;;;;;;;5074831;28;20111;-69
2023/04/29 12:41:58;;;;;;;5.38;3.63;;;;;;;;;;5094479;28;20490;-65
2023/04/29 12:44:37;;;;;;;7.95;3.05;;;;;;;;;;5094212;28;20044;-68
2023/04/29 12:47:08;;;;;;;7.25;2.83;;;;;;;;;;5094466;28;20058;-66
2023/04/29 12:49:37;;;;;;;6.07;3.40;;;;;;;;;;5094641;28;20044;-66
2023/04/29 12:52:08;;;;;;;5.60;2.92;;;;;;;;;;5093402;28;20039;-65
2023/04/29 12:54:36;;;;;;;5.80;2.65;;;;;;;;;;5094548;28;20040;-65
2023/04/29 12:57:04;;;;;;;5.25;2.67;;;;;;;;;;5094400;28;20581;-65
2023/04/29 12:59:32;;;;;;;4.38;2.67;;;;;;;;;;5093880;28;20052;-66
2023/04/29 13:01:59;;;;;;;8.88;3.50;;;;;;;;;;5093055;28;20036;-66
2023/04/29 13:04:28;;;;;;;6.88;3.10;;;;;;;;;;5094419;28;20049;-65
2023/04/29 13:07:03;;;;;;;5.03;2.70;;;;;;;;;;5094143;28;20036;-66
2023/04/29 13:09:30;;;;;;;7.85;4.38;;;;;;;;;;5094171;28;20411;-66
2023/04/29 13:11:58;;;;;;;4.85;3.22;;;;;;;;;;5094066;28;20040;-66
2023/04/29 13:14:26;;;;;;;5.13;2.92;;;;;;;;;;5092923;28;20481;-66
2023/04/29 13:16:54;;;;;;;4.90;2.80;;;;;;;;;;5094120;28;20048;-66
2023/04/29 13:19:21;;;;;;;4.85;3.03;;;;;;;;;;5093432;28;20056;-66
2023/04/29 13:21:52;;;;;;;5.63;3.72;;;;;;;;;;5094228;28;20048;-66
2023/04/29 13:24:19;;;;;;;5.47;2.70;;;;;;;;;;5094112;28;20036;-66
2023/04/29 13:26:48;;;;;;;5.47;2.85;;;;;;;;;;5093821;28;20044;-66
2023/04/29 13:29:18;;;;;;;9.25;2.75;;;;;;;;;;5093344;28;20048;-65
2023/04/29 13:31:46;;;;;;;5.22;2.92;;;;;;;;;;5093686;28;20059;-65
2023/04/29 13:34:14;;;;;;;4.25;2.90;;;;;;;;;;5075608;28;20066;-65
2023/04/29 13:36:41;;;;;;;5.88;3.20;;;;;;;;;;5093680;28;20040;-66
2023/04/29 13:39:09;;;;;;;6.43;2.60;;;;;;;;;;5093568;28;20043;-65
2023/04/29 13:41:36;;;;;;;6.07;2.80;;;;;;;;;;5093700;28;20069;-65
2023/04/29 13:44:10;;;;;;;30.75;22.52;;;;;;;;;;5093424;28;20036;-65
2023/04/29 13:46:55;;;;;;;43.80;32.83;;;;;;;;;;5093517;28;20040;-67
2023/04/29 13:49:22;;;;;;;35.78;26.35;;;;;;;;;;5093387;28;20040;-65
2023/04/29 13:52:11;;;;;;;51.80;39.10;;;;;;;;;;5091916;28;20123;-65
2023/04/29 13:54:58;;;;;;;7.75;3.20;;;;;;;;;;5093623;28;20048;-65
2023/04/29 13:57:45;;;;;;;16.30;10.68;;;;;;;;;;5093264;28;20036;-65
2023/04/29 14:00:16;;;;;;;36.00;22.77;;;;;;;;;;5093088;28;20044;-65
2023/04/29 14:02:47;;;;;;;6.47;3.78;;;;;;;;;;5093242;28;20059;-66
2023/04/29 14:05:24;;;;;;;13.98;7.63;;;;;;;;;;5093223;28;20379;-65
2023/04/29 14:07:52;;;;;;;66.93;43.35;;;;;;;;;;5091712;28;20043;-65
2023/04/29 14:10:20;;;;;;;128.70;88.88;;;;;;;;;;5093358;28;20091;-66
2023/04/29 14:12:47;;;;;;;120.68;76.60;;;;;;;;;;5092744;28;20460;-66
2023/04/29 14:15:15;;;;;;;20.95;14.63;;;;;;;;;;5093068;28;20046;-66
2023/04/29 14:17:43;;;;;;;12.23;9.38;;;;;;;;;;5093178;28;20052;-67
2023/04/29 14:20:11;;;;;;;9.00;5.28;;;;;;;;;;5092876;28;20040;-66
2023/04/29 14:22:38;;;;;;;5.35;3.47;;;;;;;;;;5092840;28;20044;-66
2023/04/29 14:25:07;;;;;;;6.70;3.28;;;;;;;;;;5092839;28;20040;-66
2023/04/29 14:27:35;;;;;;;5.65;3.50;;;;;;;;;;5092929;28;20498;-66
2023/04/29 14:30:04;;;;;;;5.25;2.92;;;;;;;;;;5092782;28;20040;-66
2023/04/29 14:32:31;;;;;;;4.90;2.85;;;;;;;;;;5092599;28;20064;-66
2023/04/29 14:34:59;;;;;;;5.50;3.00;;;;;;;;;;5092720;28;20055;-66
2023/04/29 14:37:27;;;;;;;7.47;3.45;;;;;;;;;;5092423;28;20044;-66
2023/04/29 14:39:54;;;;;;;5.38;2.85;;;;;;;;;;5092225;28;20481;-66
2023/04/29 14:42:22;;;;;;;5.13;2.70;;;;;;;;;;5092476;28;20036;-65
2023/04/29 14:44:50;;;;;;;8.48;4.78;;;;;;;;;;5092614;28;20086;-66
2023/04/29 14:47:18;;;;;;;6.38;3.30;;;;;;;;;;5091478;28;20494;-66
2023/04/29 14:49:45;;;;;;;6.13;3.10;;;;;;;;;;5092836;28;20036;-66
2023/04/29 14:52:12;;;;;;;5.78;2.70;;;;;;;;;;5092518;28;20041;-66
2023/04/29 14:54:40;;;;;;;7.03;2.97;;;;;;;;;;5092832;28;20085;-66